sensor_id;sensor_type;location;lat;lon;timestamp;P1;durP1;ratioP1;P2;durP2;ratioP2
25391;SDS011;13329;48.402;11.718;2022-11-20T00:01:05;3.95;;;2.65;;
25391;SDS011;13329;48.402;11.718;2022-11-20T00:03:30;6.45;;;2.85;;
25391;SDS011;13329;48.402;11.718;2022-11-20T00:05:59;4.83;;;2.20;;
25391;SDS011;13329;48.402;11.718;2022-11-20T00:08:24;4.03;;;2.45;;
25391;SDS011;13329;48.402;11.718;2022-11-20T00:10:49;3.87;;;2.13;;
25391;SDS011;13329;48.402;11.718;2022-11-20T00:13:14;4.03;;;1.73;;
25391;SDS011;13329;48.402;11.718;2022-11-20T00:15:40;4.63;;;2.20;;
25391;SDS011;13329;48.402;11.718;2022-11-20T00:18:05;4.13;;;2.07;;
25391;SDS011;13329;48.402;11.718;2022-11-20T00:20:30;3.70;;;2.13;;
25391;SDS011;13329;48.402;11.718;2022-11-20T00:22:55;3.77;;;1.70;;
25391;SDS011;13329;48.402;11.718;2022-11-20T00:25:20;4.23;;;2.23;;
25391;SDS011;13329;48.402;11.718;2022-11-20T00:27:45;4.77;;;2.13;;
25391;SDS011;13329;48.402;11.718;2022-11-20T00:30:11;3.50;;;2.17;;
25391;SDS011;13329;48.402;11.718;2022-11-20T00:32:36;4.68;;;1.42;;
25391;SDS011;13329;48.402;11.718;2022-11-20T00:35:02;4.73;;;2.33;;
25391;SDS011;13329;48.402;11.718;2022-11-20T00:37:27;5.23;;;2.20;;
25391;SDS011;13329;48.402;11.718;2022-11-20T00:39:52;3.83;;;1.40;;
25391;SDS011;13329;48.402;11.718;2022-11-20T00:42:17;5.47;;;2.23;;
25391;SDS011;13329;48.402;11.718;2022-11-20T00:44:42;3.93;;;2.23;;
25391;SDS011;13329;48.402;11.718;2022-11-20T00:47:07;3.80;;;2.10;;
25391;SDS011;13329;48.402;11.718;2022-11-20T00:49:33;5.27;;;2.67;;
25391;SDS011;13329;48.402;11.718;2022-11-20T00:51:58;6.53;;;3.07;;
25391;SDS011;13329;48.402;11.718;2022-11-20T00:54:23;4.50;;;2.13;;
25391;SDS011;13329;48.402;11.718;2022-11-20T00:56:48;4.15;;;1.98;;
25391;SDS011;13329;48.402;11.718;2022-11-20T00:59:13;7.07;;;3.20;;
25391;SDS011;13329;48.402;11.718;2022-11-20T01:01:39;5.67;;;3.13;;
25391;SDS011;13329;48.402;11.718;2022-11-20T01:04:04;8.37;;;3.63;;
25391;SDS011;13329;48.402;11.718;2022-11-20T01:06:30;6.93;;;3.57;;
25391;SDS011;13329;48.402;11.718;2022-11-20T01:08:56;8.30;;;3.03;;
25391;SDS011;13329;48.402;11.718;2022-11-20T01:11:23;8.95;;;4.22;;
25391;SDS011;13329;48.402;11.718;2022-11-20T01:13:49;6.50;;;3.50;;
25391;SDS011;13329;48.402;11.718;2022-11-20T01:16:22;7.28;;;3.65;;
25391;SDS011;13329;48.402;11.718;2022-11-20T01:18:48;8.57;;;3.63;;
25391;SDS011;13329;48.402;11.718;2022-11-20T01:21:18;10.30;;;3.88;;
25391;SDS011;13329;48.402;11.718;2022-11-20T01:23:44;7.13;;;2.85;;
25391;SDS011;13329;48.402;11.718;2022-11-20T01:26:10;8.38;;;3.75;;
25391;SDS011;13329;48.402;11.718;2022-11-20T01:28:35;8.25;;;3.65;;
25391;SDS011;13329;48.402;11.718;2022-11-20T01:31:01;7.05;;;3.13;;
25391;SDS011;13329;48.402;11.718;2022-11-20T01:33:26;7.38;;;3.42;;
25391;SDS011;13329;48.402;11.718;2022-11-20T01:35:51;4.53;;;2.80;;
25391;SDS011;13329;48.402;11.718;2022-11-20T01:38:17;6.38;;;3.85;;
25391;SDS011;13329;48.402;11.718;2022-11-20T01:40:42;5.97;;;3.50;;
25391;SDS011;13329;48.402;11.718;2022-11-20T01:43:14;5.00;;;2.00;;
25391;SDS011;13329;48.402;11.718;2022-11-20T01:48:22;8.25;;;3.50;;
25391;SDS011;13329;48.402;11.718;2022-11-20T01:50:47;6.50;;;3.40;;
25391;SDS011;13329;48.402;11.718;2022-11-20T01:53:13;9.68;;;2.28;;
25391;SDS011;13329;48.402;11.718;2022-11-20T01:55:41;5.07;;;3.15;;
25391;SDS011;13329;48.402;11.718;2022-11-20T01:58:09;6.63;;;2.65;;
25391;SDS011;13329;48.402;11.718;2022-11-20T02:00:34;5.60;;;3.10;;
25391;SDS011;13329;48.402;11.718;2022-11-20T02:03:00;5.45;;;3.63;;
25391;SDS011;13329;48.402;11.718;2022-11-20T02:07:53;4.32;;;2.67;;
25391;SDS011;13329;48.402;11.718;2022-11-20T02:10:19;6.20;;;2.78;;
25391;SDS011;13329;48.402;11.718;2022-11-20T02:12:44;5.78;;;3.17;;
25391;SDS011;13329;48.402;11.718;2022-11-20T02:15:28;5.93;;;2.78;;
25391;SDS011;13329;48.402;11.718;2022-11-20T02:17:53;6.63;;;3.10;;
25391;SDS011;13329;48.402;11.718;2022-11-20T02:20:19;6.45;;;3.17;;
25391;SDS011;13329;48.402;11.718;2022-11-20T02:22:54;5.00;;;2.27;;
25391;SDS011;13329;48.402;11.718;2022-11-20T02:25:21;5.40;;;2.65;;
25391;SDS011;13329;48.402;11.718;2022-11-20T02:27:48;7.93;;;3.53;;
25391;SDS011;13329;48.402;11.718;2022-11-20T02:30:14;5.45;;;2.75;;
25391;SDS011;13329;48.402;11.718;2022-11-20T02:32:39;7.40;;;3.43;;
25391;SDS011;13329;48.402;11.718;2022-11-20T02:37:34;4.30;;;2.65;;
25391;SDS011;13329;48.402;11.718;2022-11-20T02:40:01;5.30;;;2.83;;
25391;SDS011;13329;48.402;11.718;2022-11-20T02:42:26;6.90;;;2.70;;
25391;SDS011;13329;48.402;11.718;2022-11-20T02:44:51;4.27;;;2.20;;
25391;SDS011;13329;48.402;11.718;2022-11-20T02:47:16;6.77;;;2.90;;
25391;SDS011;13329;48.402;11.718;2022-11-20T02:49:41;5.07;;;2.53;;
25391;SDS011;13329;48.402;11.718;2022-11-20T02:52:06;4.43;;;2.73;;
25391;SDS011;13329;48.402;11.718;2022-11-20T02:54:32;6.10;;;3.47;;
25391;SDS011;13329;48.402;11.718;2022-11-20T02:56:57;4.90;;;2.77;;
25391;SDS011;13329;48.402;11.718;2022-11-20T02:59:22;5.43;;;2.73;;
25391;SDS011;13329;48.402;11.718;2022-11-20T03:01:47;7.17;;;2.43;;
25391;SDS011;13329;48.402;11.718;2022-11-20T03:04:12;1.50;;;1.10;;
25391;SDS011;13329;48.402;11.718;2022-11-20T03:06:37;5.20;;;2.80;;
25391;SDS011;13329;48.402;11.718;2022-11-20T03:09:03;4.23;;;2.60;;
25391;SDS011;13329;48.402;11.718;2022-11-20T03:11:28;2.47;;;1.80;;
25391;SDS011;13329;48.402;11.718;2022-11-20T03:13:53;6.93;;;2.60;;
25391;SDS011;13329;48.402;11.718;2022-11-20T03:16:19;2.80;;;1.70;;
25391;SDS011;13329;48.402;11.718;2022-11-20T03:18:44;7.38;;;2.92;;
25391;SDS011;13329;48.402;11.718;2022-11-20T03:21:10;8.68;;;2.72;;
25391;SDS011;13329;48.402;11.718;2022-11-20T03:23:36;2.05;;;1.55;;
25391;SDS011;13329;48.402;11.718;2022-11-20T03:26:23;3.80;;;2.13;;
25391;SDS011;13329;48.402;11.718;2022-11-20T03:28:50;7.68;;;3.08;;
25391;SDS011;13329;48.402;11.718;2022-11-20T03:31:16;6.63;;;2.92;;
25391;SDS011;13329;48.402;11.718;2022-11-20T03:33:41;5.47;;;2.65;;
25391;SDS011;13329;48.402;11.718;2022-11-20T03:36:10;3.85;;;2.00;;
25391;SDS011;13329;48.402;11.718;2022-11-20T03:38:36;7.80;;;3.47;;
25391;SDS011;13329;48.402;11.718;2022-11-20T03:41:02;7.13;;;3.17;;
25391;SDS011;13329;48.402;11.718;2022-11-20T03:43:28;1.42;;;0.77;;
25391;SDS011;13329;48.402;11.718;2022-11-20T03:45:53;5.13;;;3.00;;
25391;SDS011;13329;48.402;11.718;2022-11-20T03:48:19;4.30;;;2.55;;
25391;SDS011;13329;48.402;11.718;2022-11-20T03:50:44;3.57;;;2.07;;
25391;SDS011;13329;48.402;11.718;2022-11-20T03:53:09;7.80;;;3.10;;
25391;SDS011;13329;48.402;11.718;2022-11-20T03:55:34;3.57;;;2.13;;
25391;SDS011;13329;48.402;11.718;2022-11-20T03:57:59;5.97;;;2.93;;
25391;SDS011;13329;48.402;11.718;2022-11-20T04:00:24;8.00;;;2.97;;
25391;SDS011;13329;48.402;11.718;2022-11-20T04:02:49;6.57;;;2.60;;
25391;SDS011;13329;48.402;11.718;2022-11-20T04:05:15;7.03;;;3.43;;
25391;SDS011;13329;48.402;11.718;2022-11-20T04:07:40;5.73;;;2.17;;
25391;SDS011;13329;48.402;11.718;2022-11-20T04:10:05;3.30;;;1.73;;
25391;SDS011;13329;48.402;11.718;2022-11-20T04:12:33;6.57;;;2.65;;
25391;SDS011;13329;48.402;11.718;2022-11-20T04:14:58;4.50;;;2.30;;
25391;SDS011;13329;48.402;11.718;2022-11-20T04:17:24;2.73;;;1.70;;
25391;SDS011;13329;48.402;11.718;2022-11-20T04:19:49;2.33;;;1.17;;
25391;SDS011;13329;48.402;11.718;2022-11-20T04:22:14;2.13;;;1.40;;
25391;SDS011;13329;48.402;11.718;2022-11-20T04:24:39;4.53;;;2.57;;
25391;SDS011;13329;48.402;11.718;2022-11-20T04:27:04;9.40;;;3.13;;
25391;SDS011;13329;48.402;11.718;2022-11-20T04:29:29;4.03;;;2.37;;
25391;SDS011;13329;48.402;11.718;2022-11-20T04:31:55;3.57;;;1.80;;
25391;SDS011;13329;48.402;11.718;2022-11-20T04:34:20;6.23;;;2.23;;
25391;SDS011;13329;48.402;11.718;2022-11-20T04:36:45;4.93;;;3.27;;
25391;SDS011;13329;48.402;11.718;2022-11-20T04:39:11;3.80;;;2.10;;
25391;SDS011;13329;48.402;11.718;2022-11-20T04:41:36;6.68;;;2.33;;
25391;SDS011;13329;48.402;11.718;2022-11-20T04:44:02;4.95;;;2.88;;
25391;SDS011;13329;48.402;11.718;2022-11-20T04:46:29;4.55;;;2.28;;
25391;SDS011;13329;48.402;11.718;2022-11-20T04:48:55;4.30;;;2.33;;
25391;SDS011;13329;48.402;11.718;2022-11-20T04:51:20;3.75;;;2.10;;
25391;SDS011;13329;48.402;11.718;2022-11-20T04:53:45;2.42;;;1.65;;
25391;SDS011;13329;48.402;11.718;2022-11-20T04:56:11;3.27;;;1.87;;
25391;SDS011;13329;48.402;11.718;2022-11-20T04:58:36;3.63;;;2.20;;
25391;SDS011;13329;48.402;11.718;2022-11-20T05:01:03;3.83;;;2.42;;
25391;SDS011;13329;48.402;11.718;2022-11-20T05:03:28;2.38;;;1.67;;
25391;SDS011;13329;48.402;11.718;2022-11-20T05:05:53;5.50;;;2.60;;
25391;SDS011;13329;48.402;11.718;2022-11-20T05:08:18;4.70;;;2.30;;
25391;SDS011;13329;48.402;11.718;2022-11-20T05:10:44;5.07;;;2.90;;
25391;SDS011;13329;48.402;11.718;2022-11-20T05:13:09;4.57;;;2.30;;
25391;SDS011;13329;48.402;11.718;2022-11-20T05:15:34;1.37;;;1.20;;
25391;SDS011;13329;48.402;11.718;2022-11-20T05:17:59;4.30;;;2.27;;
25391;SDS011;13329;48.402;11.718;2022-11-20T05:20:24;6.43;;;2.00;;
25391;SDS011;13329;48.402;11.718;2022-11-20T05:22:49;3.20;;;1.57;;
25391;SDS011;13329;48.402;11.718;2022-11-20T05:25:15;2.33;;;1.60;;
25391;SDS011;13329;48.402;11.718;2022-11-20T05:27:40;3.03;;;1.57;;
25391;SDS011;13329;48.402;11.718;2022-11-20T05:30:05;5.23;;;2.00;;
25391;SDS011;13329;48.402;11.718;2022-11-20T05:32:31;6.03;;;2.33;;
25391;SDS011;13329;48.402;11.718;2022-11-20T05:34:56;4.53;;;2.23;;
25391;SDS011;13329;48.402;11.718;2022-11-20T05:37:21;4.80;;;2.17;;
25391;SDS011;13329;48.402;11.718;2022-11-20T05:39:46;3.97;;;2.37;;
25391;SDS011;13329;48.402;11.718;2022-11-20T05:42:11;3.70;;;2.00;;
25391;SDS011;13329;48.402;11.718;2022-11-20T05:47:20;2.88;;;1.88;;
25391;SDS011;13329;48.402;11.718;2022-11-20T05:49:45;4.53;;;2.20;;
25391;SDS011;13329;48.402;11.718;2022-11-20T05:52:10;10.47;;;2.40;;
25391;SDS011;13329;48.402;11.718;2022-11-20T05:54:35;4.30;;;2.50;;
25391;SDS011;13329;48.402;11.718;2022-11-20T05:57:00;1.97;;;1.37;;
25391;SDS011;13329;48.402;11.718;2022-11-20T05:59:26;3.03;;;1.48;;
25391;SDS011;13329;48.402;11.718;2022-11-20T06:01:51;6.20;;;2.40;;
25391;SDS011;13329;48.402;11.718;2022-11-20T06:04:16;8.73;;;2.67;;
25391;SDS011;13329;48.402;11.718;2022-11-20T06:06:41;5.47;;;2.80;;
25391;SDS011;13329;48.402;11.718;2022-11-20T06:09:06;3.97;;;2.27;;
25391;SDS011;13329;48.402;11.718;2022-11-20T06:11:32;6.47;;;2.37;;
25391;SDS011;13329;48.402;11.718;2022-11-20T06:13:57;3.47;;;2.13;;
25391;SDS011;13329;48.402;11.718;2022-11-20T06:16:22;4.50;;;2.07;;
25391;SDS011;13329;48.402;11.718;2022-11-20T06:18:47;4.80;;;2.10;;
25391;SDS011;13329;48.402;11.718;2022-11-20T06:21:20;3.27;;;1.73;;
25391;SDS011;13329;48.402;11.718;2022-11-20T06:23:45;3.95;;;2.33;;
25391;SDS011;13329;48.402;11.718;2022-11-20T06:26:12;4.68;;;2.08;;
25391;SDS011;13329;48.402;11.718;2022-11-20T06:28:37;5.78;;;2.38;;
25391;SDS011;13329;48.402;11.718;2022-11-20T06:31:03;4.40;;;1.95;;
25391;SDS011;13329;48.402;11.718;2022-11-20T06:33:29;4.38;;;2.28;;
25391;SDS011;13329;48.402;11.718;2022-11-20T06:35:57;6.80;;;2.10;;
25391;SDS011;13329;48.402;11.718;2022-11-20T06:38:23;4.05;;;2.30;;
25391;SDS011;13329;48.402;11.718;2022-11-20T06:40:48;6.40;;;2.92;;
25391;SDS011;13329;48.402;11.718;2022-11-20T06:43:14;5.27;;;2.53;;
25391;SDS011;13329;48.402;11.718;2022-11-20T06:45:39;5.43;;;2.70;;
25391;SDS011;13329;48.402;11.718;2022-11-20T06:48:04;6.53;;;2.83;;
25391;SDS011;13329;48.402;11.718;2022-11-20T06:50:29;5.30;;;2.60;;
25391;SDS011;13329;48.402;11.718;2022-11-20T06:52:54;3.27;;;1.90;;
25391;SDS011;13329;48.402;11.718;2022-11-20T06:55:20;4.40;;;2.50;;
25391;SDS011;13329;48.402;11.718;2022-11-20T06:57:45;4.13;;;2.43;;
25391;SDS011;13329;48.402;11.718;2022-11-20T07:00:10;5.30;;;2.43;;
25391;SDS011;13329;48.402;11.718;2022-11-20T07:02:36;6.47;;;2.47;;
25391;SDS011;13329;48.402;11.718;2022-11-20T07:05:01;4.40;;;2.33;;
25391;SDS011;13329;48.402;11.718;2022-11-20T07:07:26;4.40;;;2.17;;
25391;SDS011;13329;48.402;11.718;2022-11-20T07:09:51;2.90;;;1.90;;
25391;SDS011;13329;48.402;11.718;2022-11-20T07:12:16;2.43;;;1.90;;
25391;SDS011;13329;48.402;11.718;2022-11-20T07:14:41;3.80;;;2.23;;
25391;SDS011;13329;48.402;11.718;2022-11-20T07:17:07;3.23;;;1.80;;
25391;SDS011;13329;48.402;11.718;2022-11-20T07:19:32;5.20;;;2.37;;
25391;SDS011;13329;48.402;11.718;2022-11-20T07:21:57;6.80;;;2.37;;
25391;SDS011;13329;48.402;11.718;2022-11-20T07:24:22;2.88;;;1.85;;
25391;SDS011;13329;48.402;11.718;2022-11-20T07:26:47;4.77;;;2.60;;
25391;SDS011;13329;48.402;11.718;2022-11-20T07:29:14;3.75;;;2.10;;
25391;SDS011;13329;48.402;11.718;2022-11-20T07:31:39;5.30;;;2.20;;
25391;SDS011;13329;48.402;11.718;2022-11-20T07:34:04;5.27;;;2.17;;
25391;SDS011;13329;48.402;11.718;2022-11-20T07:36:29;3.47;;;2.10;;
25391;SDS011;13329;48.402;11.718;2022-11-20T07:38:54;1.90;;;1.37;;
25391;SDS011;13329;48.402;11.718;2022-11-20T07:41:20;3.40;;;2.13;;
25391;SDS011;13329;48.402;11.718;2022-11-20T07:43:45;2.80;;;2.00;;
25391;SDS011;13329;48.402;11.718;2022-11-20T07:46:10;3.13;;;2.10;;
25391;SDS011;13329;48.402;11.718;2022-11-20T07:48:35;3.03;;;1.93;;
25391;SDS011;13329;48.402;11.718;2022-11-20T07:51:00;4.97;;;2.33;;
25391;SDS011;13329;48.402;11.718;2022-11-20T07:53:26;5.00;;;2.03;;
25391;SDS011;13329;48.402;11.718;2022-11-20T07:55:51;4.50;;;2.67;;
25391;SDS011;13329;48.402;11.718;2022-11-20T07:58:20;1.50;;;0.93;;
25391;SDS011;13329;48.402;11.718;2022-11-20T08:00:45;5.40;;;1.77;;
25391;SDS011;13329;48.402;11.718;2022-11-20T08:03:10;0.80;;;0.68;;
25391;SDS011;13329;48.402;11.718;2022-11-20T08:05:35;2.77;;;1.77;;
25391;SDS011;13329;48.402;11.718;2022-11-20T08:08:02;3.58;;;2.00;;
25391;SDS011;13329;48.402;11.718;2022-11-20T08:10:27;6.13;;;2.23;;
25391;SDS011;13329;48.402;11.718;2022-11-20T08:12:52;3.57;;;1.80;;
25391;SDS011;13329;48.402;11.718;2022-11-20T08:15:36;1.50;;;0.90;;
25391;SDS011;13329;48.402;11.718;2022-11-20T08:18:09;3.15;;;1.73;;
25391;SDS011;13329;48.402;11.718;2022-11-20T08:20:35;1.65;;;0.90;;
25391;SDS011;13329;48.402;11.718;2022-11-20T08:23:01;3.83;;;1.90;;
25391;SDS011;13329;48.402;11.718;2022-11-20T08:25:28;1.38;;;0.88;;
25391;SDS011;13329;48.402;11.718;2022-11-20T08:27:53;4.45;;;2.35;;
25391;SDS011;13329;48.402;11.718;2022-11-20T08:30:18;3.87;;;1.93;;
25391;SDS011;13329;48.402;11.718;2022-11-20T08:32:43;3.03;;;1.70;;
25391;SDS011;13329;48.402;11.718;2022-11-20T08:35:09;2.58;;;1.73;;
25391;SDS011;13329;48.402;11.718;2022-11-20T08:37:34;2.30;;;1.20;;
25391;SDS011;13329;48.402;11.718;2022-11-20T08:39:59;2.37;;;1.53;;
25391;SDS011;13329;48.402;11.718;2022-11-20T08:42:24;1.87;;;1.17;;
25391;SDS011;13329;48.402;11.718;2022-11-20T08:44:49;4.30;;;1.90;;
25391;SDS011;13329;48.402;11.718;2022-11-20T08:47:14;2.90;;;1.57;;
25391;SDS011;13329;48.402;11.718;2022-11-20T08:49:40;3.60;;;1.83;;
25391;SDS011;13329;48.402;11.718;2022-11-20T08:52:05;3.17;;;1.90;;
25391;SDS011;13329;48.402;11.718;2022-11-20T08:54:30;3.25;;;2.03;;
25391;SDS011;13329;48.402;11.718;2022-11-20T08:56:55;5.10;;;2.47;;
25391;SDS011;13329;48.402;11.718;2022-11-20T08:59:20;2.40;;;1.42;;
25391;SDS011;13329;48.402;11.718;2022-11-20T09:01:46;6.93;;;1.47;;
25391;SDS011;13329;48.402;11.718;2022-11-20T09:04:11;3.05;;;1.70;;
25391;SDS011;13329;48.402;11.718;2022-11-20T09:06:38;1.60;;;1.25;;
25391;SDS011;13329;48.402;11.718;2022-11-20T09:09:03;6.97;;;2.23;;
25391;SDS011;13329;48.402;11.718;2022-11-20T09:11:28;4.60;;;1.67;;
25391;SDS011;13329;48.402;11.718;2022-11-20T09:13:54;2.43;;;1.53;;
25391;SDS011;13329;48.402;11.718;2022-11-20T09:16:19;4.57;;;1.83;;
25391;SDS011;13329;48.402;11.718;2022-11-20T09:18:44;3.05;;;1.48;;
25391;SDS011;13329;48.402;11.718;2022-11-20T09:21:11;1.00;;;0.77;;
25391;SDS011;13329;48.402;11.718;2022-11-20T09:23:37;2.95;;;1.83;;
25391;SDS011;13329;48.402;11.718;2022-11-20T09:26:06;1.08;;;0.93;;
25391;SDS011;13329;48.402;11.718;2022-11-20T09:28:32;3.72;;;1.00;;
25391;SDS011;13329;48.402;11.718;2022-11-20T09:30:57;3.28;;;1.80;;
25391;SDS011;13329;48.402;11.718;2022-11-20T09:33:23;2.25;;;1.30;;
25391;SDS011;13329;48.402;11.718;2022-11-20T09:35:48;3.83;;;1.93;;
25391;SDS011;13329;48.402;11.718;2022-11-20T09:38:13;5.33;;;2.60;;
25391;SDS011;13329;48.402;11.718;2022-11-20T09:43:28;2.83;;;1.50;;
25391;SDS011;13329;48.402;11.718;2022-11-20T09:51:17;3.70;;;1.63;;
25391;SDS011;13329;48.402;11.718;2022-11-20T09:56:28;2.83;;;1.60;;
25391;SDS011;13329;48.402;11.718;2022-11-20T09:59:03;4.35;;;1.20;;
25391;SDS011;13329;48.402;11.718;2022-11-20T10:01:30;5.57;;;1.63;;
25391;SDS011;13329;48.402;11.718;2022-11-20T10:04:03;2.35;;;1.23;;
25391;SDS011;13329;48.402;11.718;2022-11-20T10:06:34;0.98;;;0.65;;
25391;SDS011;13329;48.402;11.718;2022-11-20T10:11:36;4.85;;;2.20;;
25391;SDS011;13329;48.402;11.718;2022-11-20T10:16:57;2.03;;;1.83;;
25391;SDS011;13329;48.402;11.718;2022-11-20T10:30:10;1.13;;;0.82;;
25391;SDS011;13329;48.402;11.718;2022-11-20T10:32:37;2.97;;;1.70;;
25391;SDS011;13329;48.402;11.718;2022-11-20T10:35:09;3.35;;;1.00;;
25391;SDS011;13329;48.402;11.718;2022-11-20T10:37:41;4.05;;;2.20;;
25391;SDS011;13329;48.402;11.718;2022-11-20T10:42:37;1.73;;;1.08;;
25391;SDS011;13329;48.402;11.718;2022-11-20T10:47:38;1.70;;;0.82;;
25391;SDS011;13329;48.402;11.718;2022-11-20T10:50:04;2.47;;;1.60;;
25391;SDS011;13329;48.402;11.718;2022-11-20T10:55:12;1.30;;;1.00;;
25391;SDS011;13329;48.402;11.718;2022-11-20T10:57:48;2.33;;;1.48;;
25391;SDS011;13329;48.402;11.718;2022-11-20T11:00:15;2.72;;;0.75;;
25391;SDS011;13329;48.402;11.718;2022-11-20T11:05:16;0.82;;;0.60;;
25391;SDS011;13329;48.402;11.718;2022-11-20T11:07:43;3.47;;;1.52;;
25391;SDS011;13329;48.402;11.718;2022-11-20T11:10:52;3.20;;;1.48;;
25391;SDS011;13329;48.402;11.718;2022-11-20T11:12:57;2.03;;;1.50;;
25391;SDS011;13329;48.402;11.718;2022-11-20T11:15:27;1.30;;;0.90;;
25391;SDS011;13329;48.402;11.718;2022-11-20T11:17:53;3.65;;;1.10;;
25391;SDS011;13329;48.402;11.718;2022-11-20T11:20:19;0.60;;;0.47;;
25391;SDS011;13329;48.402;11.718;2022-11-20T11:22:55;1.77;;;0.73;;
25391;SDS011;13329;48.402;11.718;2022-11-20T11:25:25;3.05;;;0.90;;
25391;SDS011;13329;48.402;11.718;2022-11-20T11:27:51;0.57;;;0.57;;
25391;SDS011;13329;48.402;11.718;2022-11-20T11:30:17;3.85;;;0.90;;
25391;SDS011;13329;48.402;11.718;2022-11-20T11:32:43;1.55;;;1.10;;
25391;SDS011;13329;48.402;11.718;2022-11-20T11:35:18;3.20;;;0.73;;
25391;SDS011;13329;48.402;11.718;2022-11-20T11:37:44;1.00;;;0.80;;
25391;SDS011;13329;48.402;11.718;2022-11-20T11:40:10;0.80;;;0.68;;
25391;SDS011;13329;48.402;11.718;2022-11-20T11:42:40;1.25;;;0.98;;
25391;SDS011;13329;48.402;11.718;2022-11-20T11:45:06;1.98;;;1.02;;
25391;SDS011;13329;48.402;11.718;2022-11-20T11:52:51;1.00;;;0.90;;
25391;SDS011;13329;48.402;11.718;2022-11-20T12:00:24;1.80;;;0.60;;
25391;SDS011;13329;48.402;11.718;2022-11-20T12:02:54;2.83;;;0.73;;
25391;SDS011;13329;48.402;11.718;2022-11-20T12:07:55;0.40;;;0.40;;
25391;SDS011;13329;48.402;11.718;2022-11-20T12:10:22;1.50;;;1.10;;
25391;SDS011;13329;48.402;11.718;2022-11-20T12:15:34;1.95;;;0.82;;
25391;SDS011;13329;48.402;11.718;2022-11-20T12:17:59;2.28;;;0.70;;
25391;SDS011;13329;48.402;11.718;2022-11-20T12:20:33;1.40;;;0.88;;
25391;SDS011;13329;48.402;11.718;2022-11-20T12:23:06;1.02;;;0.85;;
25391;SDS011;13329;48.402;11.718;2022-11-20T12:25:35;0.85;;;0.40;;
25391;SDS011;13329;48.402;11.718;2022-11-20T12:30:42;1.45;;;0.70;;
25391;SDS011;13329;48.402;11.718;2022-11-20T12:43:46;0.90;;;0.80;;
25391;SDS011;13329;48.402;11.718;2022-11-20T12:46:43;3.03;;;1.70;;
25391;SDS011;13329;48.402;11.718;2022-11-20T12:54:35;0.88;;;0.50;;
25391;SDS011;13329;48.402;11.718;2022-11-20T12:59:39;1.45;;;1.10;;
25391;SDS011;13329;48.402;11.718;2022-11-20T13:07:10;2.88;;;1.38;;
25391;SDS011;13329;48.402;11.718;2022-11-20T13:09:37;1.20;;;1.05;;
25391;SDS011;13329;48.402;11.718;2022-11-20T13:12:11;7.13;;;2.35;;
25391;SDS011;13329;48.402;11.718;2022-11-20T13:19:54;1.33;;;0.83;;
25391;SDS011;13329;48.402;11.718;2022-11-20T13:22:27;1.40;;;0.88;;
25391;SDS011;13329;48.402;11.718;2022-11-20T13:24:52;1.90;;;1.25;;
25391;SDS011;13329;48.402;11.718;2022-11-20T13:27:19;7.47;;;1.93;;
25391;SDS011;13329;48.402;11.718;2022-11-20T13:29:46;3.70;;;2.15;;
25391;SDS011;13329;48.402;11.718;2022-11-20T13:32:18;1.25;;;0.90;;
25391;SDS011;13329;48.402;11.718;2022-11-20T13:34:54;1.85;;;1.20;;
25391;SDS011;13329;48.402;11.718;2022-11-20T13:37:29;3.08;;;1.30;;
25391;SDS011;13329;48.402;11.718;2022-11-20T13:40:05;2.08;;;1.42;;
25391;SDS011;13329;48.402;11.718;2022-11-20T13:42:30;1.58;;;1.10;;
25391;SDS011;13329;48.402;11.718;2022-11-20T13:45:00;2.17;;;1.03;;
25391;SDS011;13329;48.402;11.718;2022-11-20T13:47:26;4.20;;;1.67;;
25391;SDS011;13329;48.402;11.718;2022-11-20T13:49:52;2.28;;;1.30;;
25391;SDS011;13329;48.402;11.718;2022-11-20T13:55:28;7.78;;;1.55;;
25391;SDS011;13329;48.402;11.718;2022-11-20T14:00:29;2.08;;;1.52;;
25391;SDS011;13329;48.402;11.718;2022-11-20T14:03:13;1.00;;;0.90;;
25391;SDS011;13329;48.402;11.718;2022-11-20T14:05:46;0.55;;;0.50;;
25391;SDS011;13329;48.402;11.718;2022-11-20T14:08:17;0.95;;;0.88;;
25391;SDS011;13329;48.402;11.718;2022-11-20T14:10:44;2.75;;;1.50;;
25391;SDS011;13329;48.402;11.718;2022-11-20T14:13:10;5.50;;;1.17;;
25391;SDS011;13329;48.402;11.718;2022-11-20T14:15:36;3.95;;;1.17;;
25391;SDS011;13329;48.402;11.718;2022-11-20T14:18:11;1.52;;;1.05;;
25391;SDS011;13329;48.402;11.718;2022-11-20T14:20:36;1.25;;;1.00;;
25391;SDS011;13329;48.402;11.718;2022-11-20T14:23:02;1.17;;;1.08;;
25391;SDS011;13329;48.402;11.718;2022-11-20T14:25:29;1.55;;;1.40;;
25391;SDS011;13329;48.402;11.718;2022-11-20T14:27:57;4.07;;;1.08;;
25391;SDS011;13329;48.402;11.718;2022-11-20T14:30:23;2.47;;;1.55;;
25391;SDS011;13329;48.402;11.718;2022-11-20T14:32:49;1.00;;;0.90;;
25391;SDS011;13329;48.402;11.718;2022-11-20T14:35:29;1.42;;;1.02;;
25391;SDS011;13329;48.402;11.718;2022-11-20T14:37:55;1.15;;;0.65;;
25391;SDS011;13329;48.402;11.718;2022-11-20T14:40:24;0.57;;;0.57;;
25391;SDS011;13329;48.402;11.718;2022-11-20T14:42:49;1.90;;;1.00;;
25391;SDS011;13329;48.402;11.718;2022-11-20T14:45:15;3.77;;;1.00;;
25391;SDS011;13329;48.402;11.718;2022-11-20T14:47:41;2.88;;;1.08;;
25391;SDS011;13329;48.402;11.718;2022-11-20T14:50:12;2.92;;;1.52;;
25391;SDS011;13329;48.402;11.718;2022-11-20T14:52:38;1.73;;;1.15;;
25391;SDS011;13329;48.402;11.718;2022-11-20T14:55:03;1.50;;;0.90;;
25391;SDS011;13329;48.402;11.718;2022-11-20T14:57:29;1.60;;;0.90;;
25391;SDS011;13329;48.402;11.718;2022-11-20T15:02:29;1.55;;;1.17;;
25391;SDS011;13329;48.402;11.718;2022-11-20T15:04:58;2.88;;;1.35;;
25391;SDS011;13329;48.402;11.718;2022-11-20T15:07:28;1.48;;;1.20;;
25391;SDS011;13329;48.402;11.718;2022-11-20T15:10:07;4.70;;;1.10;;
25391;SDS011;13329;48.402;11.718;2022-11-20T15:12:37;1.77;;;0.80;;
25391;SDS011;13329;48.402;11.718;2022-11-20T15:15:03;3.40;;;1.90;;
25391;SDS011;13329;48.402;11.718;2022-11-20T15:17:30;3.28;;;1.52;;
25391;SDS011;13329;48.402;11.718;2022-11-20T15:19:55;3.13;;;1.33;;
25391;SDS011;13329;48.402;11.718;2022-11-20T15:22:21;2.78;;;1.17;;
25391;SDS011;13329;48.402;11.718;2022-11-20T15:24:46;1.77;;;1.10;;
25391;SDS011;13329;48.402;11.718;2022-11-20T15:27:11;2.60;;;1.17;;
25391;SDS011;13329;48.402;11.718;2022-11-20T15:29:37;3.30;;;1.40;;
25391;SDS011;13329;48.402;11.718;2022-11-20T15:32:02;2.10;;;1.33;;
25391;SDS011;13329;48.402;11.718;2022-11-20T15:34:28;2.58;;;1.10;;
25391;SDS011;13329;48.402;11.718;2022-11-20T15:36:53;3.42;;;1.33;;
25391;SDS011;13329;48.402;11.718;2022-11-20T15:39:19;2.08;;;1.40;;
25391;SDS011;13329;48.402;11.718;2022-11-20T15:41:44;1.48;;;0.80;;
25391;SDS011;13329;48.402;11.718;2022-11-20T15:44:09;2.83;;;1.20;;
25391;SDS011;13329;48.402;11.718;2022-11-20T15:46:36;2.23;;;1.20;;
25391;SDS011;13329;48.402;11.718;2022-11-20T15:49:03;1.33;;;0.98;;
25391;SDS011;13329;48.402;11.718;2022-11-20T15:51:30;2.38;;;1.10;;
25391;SDS011;13329;48.402;11.718;2022-11-20T15:53:56;2.42;;;1.10;;
25391;SDS011;13329;48.402;11.718;2022-11-20T15:56:21;1.83;;;0.80;;
25391;SDS011;13329;48.402;11.718;2022-11-20T15:58:46;1.17;;;0.80;;
25391;SDS011;13329;48.402;11.718;2022-11-20T16:01:12;2.30;;;0.90;;
25391;SDS011;13329;48.402;11.718;2022-11-20T16:03:38;2.80;;;1.55;;
25391;SDS011;13329;48.402;11.718;2022-11-20T16:06:03;0.43;;;0.43;;
25391;SDS011;13329;48.402;11.718;2022-11-20T16:08:29;1.48;;;0.65;;
25391;SDS011;13329;48.402;11.718;2022-11-20T16:10:54;1.37;;;0.93;;
25391;SDS011;13329;48.402;11.718;2022-11-20T16:13:19;1.83;;;1.10;;